Time;durP1;ratioP1;P1;durP2;ratioP2;P2;SDS_P1;SDS_P2;PMS_P1;PMS_P2;Temp;Humidity;BMP_temperature;BMP_pressure;BME280_temperature;BME280_humidity;BME280_pressure;Samples;Min_cycle;Max_cycle;Signal;HPM_P1;HPM_P2
2023/09/10 00:01:02;;;;;;;10.52;7.90;;;22.40;99.90;;;;;;5034075;28;20226;-71
2023/09/10 00:03:28;;;;;;;12.85;8.90;;;22.40;99.90;;;;;;5033087;28;20841;-72
2023/09/10 00:05:54;;;;;;;11.00;8.50;;;22.30;99.90;;;;;;5032645;28;20296;-72
2023/09/10 00:08:20;;;;;;;13.00;9.02;;;22.20;99.90;;;;;;5033423;28;20227;-72
2023/09/10 00:10:46;;;;;;;15.35;9.50;;;22.20;99.90;;;;;;5024393;28;20200;-71
2023/09/10 00:13:12;;;;;;;14.05;9.07;;;22.20;99.90;;;;;;5015047;28;20598;-72
2023/09/10 00:15:38;;;;;;;13.35;8.98;;;22.10;99.90;;;;;;5031566;28;20211;-71
2023/09/10 00:18:04;;;;;;;15.27;9.63;;;22.10;99.90;;;;;;5041481;28;20216;-71
2023/09/10 00:20:29;;;;;;;13.02;8.85;;;22.00;99.90;;;;;;5019840;28;20733;-71
2023/09/10 00:22:56;;;;;;;10.68;8.73;;;22.00;99.90;;;;;;5014835;28;20224;-70
2023/09/10 00:25:22;;;;;;;15.15;9.10;;;22.00;99.90;;;;;;5014347;28;20209;-72
2023/09/10 00:27:47;;;;;;;12.43;9.32;;;22.00;99.90;;;;;;5011798;28;20250;-72
2023/09/10 00:30:13;;;;;;;12.25;8.85;;;22.00;99.90;;;;;;5010568;28;20231;-72
2023/09/10 00:32:39;;;;;;;11.10;9.00;;;21.90;99.90;;;;;;5011375;28;20204;-72
2023/09/10 00:35:05;;;;;;;13.48;9.63;;;22.00;99.90;;;;;;5021477;28;20208;-71
2023/09/10 00:37:30;;;;;;;11.35;8.73;;;22.00;99.90;;;;;;5034455;28;20232;-72
2023/09/10 00:39:56;;;;;;;11.55;8.95;;;22.00;99.90;;;;;;5034097;28;20227;-71
2023/09/10 00:42:22;;;;;;;14.57;9.35;;;22.00;99.90;;;;;;5035330;28;20558;-71
2023/09/10 00:44:48;;;;;;;14.55;9.05;;;22.00;99.90;;;;;;5031978;28;20230;-71
2023/09/10 00:47:14;;;;;;;12.27;9.00;;;21.90;99.90;;;;;;5031795;28;20204;-72
2023/09/10 00:49:40;;;;;;;13.88;9.20;;;21.90;99.90;;;;;;5031392;28;20200;-70
2023/09/10 00:52:06;;;;;;;12.20;8.70;;;21.90;99.90;;;;;;5030932;28;20220;-71
2023/09/10 00:54:32;;;;;;;12.50;8.77;;;21.80;99.90;;;;;;5032024;28;20204;-70
2023/09/10 00:57:00;;;;;;;12.20;8.95;;;21.80;99.90;;;;;;5027331;28;20216;-71
2023/09/10 00:59:27;;;;;;;13.00;9.10;;;21.70;99.90;;;;;;5017182;28;20205;-71
2023/09/10 01:01:53;;;;;;;13.20;9.10;;;21.70;99.90;;;;;;5014363;28;20600;-72
2023/09/10 01:04:22;;;;;;;12.27;9.02;;;21.70;99.90;;;;;;5017656;28;20205;-71
2023/09/10 01:06:48;;;;;;;11.40;8.40;;;21.60;99.90;;;;;;5009926;28;20204;-72
2023/09/10 01:09:14;;;;;;;15.88;9.18;;;21.60;99.90;;;;;;5009278;28;20291;-71
2023/09/10 01:11:53;;;;;;;13.27;8.45;;;21.60;99.90;;;;;;5008930;28;20217;-72
2023/09/10 01:14:47;;;;;;;14.48;10.07;;;21.50;99.90;;;;;;5009203;28;20239;-71
2023/09/10 01:17:41;;;;;;;11.15;8.57;;;21.50;99.90;;;;;;5032274;28;20208;-72
2023/09/10 01:20:21;;;;;;;13.40;9.70;;;21.40;99.90;;;;;;5031824;28;20212;-71
2023/09/10 01:23:05;;;;;;;11.98;9.48;;;21.50;99.90;;;;;;5028911;28;20304;-71
2023/09/10 01:25:32;;;;;;;10.93;8.77;;;21.40;99.90;;;;;;5031186;28;20292;-71
2023/09/10 01:27:58;;;;;;;14.02;8.73;;;21.40;99.90;;;;;;5029127;28;20188;-72
2023/09/10 01:30:24;;;;;;;12.75;9.27;;;21.40;99.90;;;;;;5009944;28;20686;-72
2023/09/10 01:32:58;;;;;;;14.00;9.65;;;21.30;99.90;;;;;;5010609;28;20286;-71
2023/09/10 01:35:44;;;;;;;14.10;9.52;;;21.30;99.90;;;;;;5023494;28;20200;-72
2023/09/10 01:38:23;;;;;;;10.43;8.93;;;21.30;99.90;;;;;;5029519;28;20208;-72
2023/09/10 01:41:13;;;;;;;11.80;9.13;;;21.30;99.90;;;;;;5026414;28;20201;-72
2023/09/10 01:43:40;;;;;;;16.83;10.40;;;21.30;99.90;;;;;;5012824;28;20691;-72
2023/09/10 01:46:07;;;;;;;14.32;9.45;;;21.20;99.90;;;;;;5009714;28;20189;-70
2023/09/10 01:48:33;;;;;;;12.95;9.40;;;21.20;99.90;;;;;;5010991;28;20178;-72
2023/09/10 01:50:59;;;;;;;11.77;9.75;;;21.20;99.90;;;;;;5015637;28;20228;-69
2023/09/10 01:53:24;;;;;;;12.50;9.15;;;21.20;99.90;;;;;;5012748;28;20699;-72
2023/09/10 01:55:50;;;;;;;11.63;8.45;;;21.20;99.90;;;;;;5011102;28;20201;-72
2023/09/10 01:58:15;;;;;;;13.27;10.43;;;21.10;99.90;;;;;;5014514;28;20201;-72
2023/09/10 02:00:42;;;;;;;12.55;9.43;;;21.10;99.90;;;;;;5005130;28;20192;-71
2023/09/10 02:03:07;;;;;;;12.80;9.57;;;21.10;99.90;;;;;;5009947;28;20727;-71
2023/09/10 02:05:33;;;;;;;11.35;8.25;;;21.10;99.90;;;;;;5025436;28;20234;-70
2023/09/10 02:07:59;;;;;;;12.23;9.75;;;21.10;99.90;;;;;;5032462;28;20204;-72
2023/09/10 02:10:25;;;;;;;12.65;8.90;;;21.00;99.90;;;;;;5031768;28;20210;-70
2023/09/10 02:12:51;;;;;;;13.13;9.65;;;21.00;99.90;;;;;;5030407;28;20204;-72
2023/09/10 02:15:17;;;;;;;13.40;9.27;;;21.00;99.90;;;;;;5030833;28;20283;-72
2023/09/10 02:17:43;;;;;;;12.60;9.45;;;20.90;99.90;;;;;;5030101;28;20231;-72
2023/09/10 02:20:09;;;;;;;13.32;9.55;;;21.00;99.90;;;;;;5018121;28;20707;-72
2023/09/10 02:22:39;;;;;;;11.65;9.75;;;20.90;99.90;;;;;;5013469;28;20622;-73
2023/09/10 02:25:05;;;;;;;13.15;9.23;;;20.90;99.90;;;;;;5013706;28;20268;-70
2023/09/10 02:27:31;;;;;;;14.50;10.27;;;20.90;99.90;;;;;;5013856;28;20188;-73
2023/09/10 02:29:58;;;;;;;15.10;9.77;;;20.90;99.90;;;;;;5010551;28;20212;-72
2023/09/10 02:32:24;;;;;;;11.80;9.20;;;20.90;99.90;;;;;;5004480;28;20220;-73
2023/09/10 02:34:53;;;;;;;12.30;9.55;;;20.80;99.90;;;;;;5009300;28;20205;-72
2023/09/10 02:37:18;;;;;;;14.45;10.05;;;20.80;99.90;;;;;;5002787;28;20240;-72
2023/09/10 02:39:44;;;;;;;12.05;9.98;;;20.80;99.90;;;;;;5009739;28;20204;-71
2023/09/10 02:42:10;;;;;;;12.00;9.35;;;20.80;99.90;;;;;;5008222;28;20809;-72
2023/09/10 02:44:35;;;;;;;17.38;11.85;;;20.70;99.90;;;;;;5009697;28;20284;-72
2023/09/10 02:47:01;;;;;;;19.95;13.02;;;20.60;99.90;;;;;;5010687;28;20213;-71
2023/09/10 02:49:27;;;;;;;18.38;11.85;;;20.70;99.90;;;;;;5013136;28;20232;-71
2023/09/10 02:51:53;;;;;;;14.40;10.77;;;20.70;99.90;;;;;;5022810;28;20181;-72
2023/09/10 02:54:19;;;;;;;15.93;11.35;;;20.70;99.90;;;;;;5022654;28;20184;-71
2023/09/10 02:56:45;;;;;;;13.18;9.63;;;20.70;99.90;;;;;;5022398;28;20338;-72
2023/09/10 02:59:21;;;;;;;12.45;9.07;;;20.60;99.90;;;;;;5023982;28;20221;-70
2023/09/10 03:01:47;;;;;;;11.02;8.73;;;20.60;99.90;;;;;;5021782;28;20211;-71
2023/09/10 03:04:14;;;;;;;16.13;9.93;;;20.60;99.90;;;;;;5025827;28;20213;-72
2023/09/10 03:06:48;;;;;;;14.88;9.73;;;20.60;99.90;;;;;;5026967;28;20168;-72
2023/09/10 03:09:15;;;;;;;12.00;9.10;;;20.60;99.90;;;;;;5022809;28;20210;-71
2023/09/10 03:11:41;;;;;;;17.17;9.80;;;20.60;99.90;;;;;;5022565;28;20204;-71
2023/09/10 03:14:08;;;;;;;12.52;9.75;;;20.50;99.90;;;;;;5021318;28;20633;-72
2023/09/10 03:16:35;;;;;;;14.43;9.65;;;20.60;99.90;;;;;;5022704;28;20689;-71
2023/09/10 03:19:01;;;;;;;11.50;8.80;;;20.60;99.90;;;;;;5024441;28;20624;-72
2023/09/10 03:21:27;;;;;;;17.52;9.95;;;20.60;99.90;;;;;;5025720;28;20254;-71
2023/09/10 03:23:53;;;;;;;15.25;10.18;;;20.50;99.90;;;;;;5025007;28;20212;-72
2023/09/10 03:26:19;;;;;;;12.27;9.63;;;20.40;99.90;;;;;;5020282;28;20211;-72
2023/09/10 03:28:45;;;;;;;14.35;10.18;;;20.40;99.90;;;;;;5022329;28;20204;-71
2023/09/10 03:31:11;;;;;;;17.45;9.98;;;20.40;99.90;;;;;;5032392;28;20208;-72
2023/09/10 03:33:36;;;;;;;13.05;9.30;;;20.40;99.90;;;;;;5031294;28;20188;-72
2023/09/10 03:36:02;;;;;;;13.18;9.82;;;20.40;99.90;;;;;;5027479;28;20211;-74
2023/09/10 03:38:28;;;;;;;12.23;9.73;;;20.30;99.90;;;;;;5019729;28;20576;-73
2023/09/10 03:40:54;;;;;;;12.52;9.90;;;20.30;99.90;;;;;;5024345;28;20204;-72
2023/09/10 03:43:20;;;;;;;15.65;9.07;;;20.30;99.90;;;;;;5026520;28;20643;-71
2023/09/10 03:45:45;;;;;;;12.23;8.98;;;20.20;99.90;;;;;;5027083;28;20177;-72
2023/09/10 03:48:12;;;;;;;12.93;9.98;;;20.20;99.90;;;;;;5026872;28;20223;-71
2023/09/10 03:50:38;;;;;;;11.35;8.57;;;20.30;99.90;;;;;;5030379;28;20211;-70
2023/09/10 03:53:04;;;;;;;11.20;8.95;;;20.20;99.90;;;;;;5021328;28;20212;-71
2023/09/10 03:55:29;;;;;;;14.77;10.70;;;20.20;99.90;;;;;;5019155;28;20885;-71
2023/09/10 03:57:55;;;;;;;13.98;9.48;;;20.20;99.90;;;;;;5020368;28;20181;-75
2023/09/10 04:00:20;;;;;;;14.13;9.20;;;20.20;99.90;;;;;;5020724;28;20270;-72
2023/09/10 04:02:46;;;;;;;17.17;10.10;;;20.20;99.90;;;;;;5024235;28;20218;-72
2023/09/10 04:05:12;;;;;;;13.68;9.95;;;20.10;99.90;;;;;;5025910;28;20577;-72
2023/09/10 04:07:38;;;;;;;12.98;9.65;;;20.10;99.90;;;;;;5015229;28;20208;-72
2023/09/10 04:10:06;;;;;;;13.23;9.43;;;20.10;99.90;;;;;;5028995;28;20271;-73
2023/09/10 04:12:31;;;;;;;13.57;9.60;;;20.10;99.90;;;;;;5024928;28;20200;-72
2023/09/10 04:14:57;;;;;;;14.02;9.88;;;20.10;99.90;;;;;;5023147;28;20218;-72
2023/09/10 04:17:23;;;;;;;13.55;9.65;;;20.00;99.90;;;;;;5024681;28;20682;-71
2023/09/10 04:19:48;;;;;;;12.85;9.75;;;20.00;99.90;;;;;;5028321;28;20199;-72
2023/09/10 04:22:14;;;;;;;15.68;10.40;;;20.00;99.90;;;;;;5018522;28;20703;-71
2023/09/10 04:24:40;;;;;;;12.30;9.52;;;20.00;99.90;;;;;;5021526;28;20196;-72
2023/09/10 04:27:06;;;;;;;14.70;10.18;;;20.00;99.90;;;;;;5028097;28;20291;-71
2023/09/10 04:29:32;;;;;;;14.50;10.27;;;20.00;99.90;;;;;;5022321;28;20368;-71
2023/09/10 04:31:57;;;;;;;13.93;9.68;;;20.00;99.90;;;;;;5025800;28;20763;-72
2023/09/10 04:34:23;;;;;;;13.60;10.45;;;20.10;99.90;;;;;;5022063;28;20215;-74
2023/09/10 04:36:48;;;;;;;13.90;9.82;;;20.00;99.90;;;;;;5027597;28;20677;-72
2023/09/10 04:39:14;;;;;;;12.68;9.10;;;20.00;99.90;;;;;;5027934;28;20230;-72
2023/09/10 04:41:39;;;;;;;14.88;10.65;;;20.00;99.90;;;;;;5028545;28;20273;-72
2023/09/10 04:44:06;;;;;;;13.02;9.77;;;20.10;99.90;;;;;;5031339;28;20212;-73
2023/09/10 04:46:31;;;;;;;14.80;10.18;;;20.10;99.90;;;;;;5022485;28;20208;-73
2023/09/10 04:49:00;;;;;;;12.73;9.63;;;20.10;99.90;;;;;;5029855;28;20202;-72
2023/09/10 04:51:25;;;;;;;13.55;10.43;;;20.20;99.90;;;;;;5031197;28;20184;-71
2023/09/10 04:53:51;;;;;;;12.70;9.90;;;20.20;99.90;;;;;;5031279;28;20212;-71
2023/09/10 04:56:17;;;;;;;14.13;9.95;;;20.20;99.90;;;;;;5030148;28;20250;-72
2023/09/10 04:58:42;;;;;;;12.10;9.48;;;20.30;99.90;;;;;;5028514;28;20204;-72
2023/09/10 05:01:08;;;;;;;14.07;9.75;;;20.50;99.90;;;;;;5030154;28;23097;-72
2023/09/10 05:03:34;;;;;;;13.18;9.27;;;20.50;99.90;;;;;;5031038;28;20219;-72
2023/09/10 05:06:00;;;;;;;15.95;10.82;;;20.60;99.90;;;;;;5027386;28;20226;-72
2023/09/10 05:08:27;;;;;;;12.82;10.23;;;20.50;99.90;;;;;;5030821;28;20210;-72
2023/09/10 05:10:54;;;;;;;12.45;10.20;;;20.60;99.90;;;;;;5030652;28;20207;-74
2023/09/10 05:13:19;;;;;;;16.42;11.25;;;20.60;99.90;;;;;;5030548;28;20242;-72
2023/09/10 05:15:48;;;;;;;13.20;10.57;;;20.50;99.90;;;;;;5031090;28;20200;-72
2023/09/10 05:18:14;;;;;;;15.15;10.52;;;20.50;99.90;;;;;;5030825;28;20682;-71
2023/09/10 05:20:40;;;;;;;15.38;10.65;;;20.60;99.90;;;;;;5029969;28;20681;-71
2023/09/10 05:23:06;;;;;;;14.93;10.50;;;20.80;99.90;;;;;;5029182;28;20224;-71
2023/09/10 05:25:36;;;;;;;13.20;10.25;;;20.90;99.90;;;;;;5030087;28;20293;-72
2023/09/10 05:28:01;;;;;;;16.77;10.45;;;21.50;99.90;;;;;;5029387;28;20184;-75
2023/09/10 05:30:27;;;;;;;12.70;9.63;;;21.70;99.90;;;;;;5030448;28;20227;-72
2023/09/10 05:32:53;;;;;;;13.98;10.90;;;22.30;99.90;;;;;;5030771;28;20667;-71
2023/09/10 05:35:18;;;;;;;14.10;10.52;;;23.10;99.90;;;;;;5030391;28;20204;-72
2023/09/10 05:37:45;;;;;;;14.25;10.07;;;25.30;99.90;;;;;;5026740;28;20668;-73
2023/09/10 05:40:11;;;;;;;11.32;9.50;;;26.70;99.90;;;;;;5029579;28;20277;-72
2023/09/10 05:42:36;;;;;;;12.85;9.77;;;27.80;99.90;;;;;;5030737;28;20689;-73
2023/09/10 05:45:02;;;;;;;12.75;10.35;;;28.60;99.90;;;;;;5030209;28;20208;-73
2023/09/10 05:47:28;;;;;;;12.20;9.80;;;29.30;99.90;;;;;;5029154;28;20878;-72
2023/09/10 05:49:53;;;;;;;10.75;9.48;;;29.90;99.90;;;;;;5030223;28;20207;-72
2023/09/10 05:52:19;;;;;;;10.82;9.65;;;30.40;99.90;;;;;;5029916;28;20223;-73
2023/09/10 05:54:44;;;;;;;12.57;9.82;;;30.60;99.90;;;;;;5029155;28;20180;-72
2023/09/10 05:57:10;;;;;;;10.80;9.07;;;30.90;99.90;;;;;;5030024;28;20215;-73
2023/09/10 05:59:36;;;;;;;13.90;10.73;;;31.40;99.90;;;;;;5029789;28;20200;-73
2023/09/10 06:02:02;;;;;;;10.38;9.38;;;31.70;99.90;;;;;;5033539;28;20596;-73
2023/09/10 06:04:27;;;;;;;10.75;9.55;;;31.80;99.90;;;;;;5032275;28;20295;-73
2023/09/10 06:06:53;;;;;;;10.13;9.15;;;32.10;99.90;;;;;;5032383;28;20679;-73
2023/09/10 06:09:19;;;;;;;10.75;9.65;;;32.30;99.90;;;;;;5029180;28;20207;-73
2023/09/10 06:11:44;;;;;;;9.77;8.80;;;32.40;99.90;;;;;;5033218;28;20203;-72
2023/09/10 06:14:10;;;;;;;10.70;9.70;;;32.80;99.90;;;;;;5033630;28;20281;-73
2023/09/10 06:16:36;;;;;;;11.43;10.25;;;33.00;99.50;;;;;;5033268;28;20590;-75
2023/09/10 06:19:01;;;;;;;10.88;8.85;;;33.00;98.40;;;;;;5033491;28;20198;-73
2023/09/10 06:21:28;;;;;;;11.30;9.30;;;33.50;97.60;;;;;;5032055;28;20207;-74
2023/09/10 06:23:54;;;;;;;11.50;9.25;;;33.70;96.70;;;;;;5033548;28;20219;-73
2023/09/10 06:26:19;;;;;;;9.45;8.55;;;33.80;96.00;;;;;;5033050;28;20712;-73
2023/09/10 06:28:45;;;;;;;10.50;9.50;;;33.80;95.10;;;;;;5033233;28;21753;-74
2023/09/10 06:31:11;;;;;;;9.50;8.60;;;34.20;94.70;;;;;;5030120;28;20276;-73
2023/09/10 06:33:36;;;;;;;12.70;8.98;;;34.60;93.80;;;;;;5033580;28;20283;-74
2023/09/10 06:36:02;;;;;;;10.27;9.38;;;35.90;92.40;;;;;;5033129;28;20813;-73
2023/09/10 06:38:31;;;;;;;10.23;9.23;;;35.60;91.20;;;;;;5031673;28;20208;-72
2023/09/10 06:40:56;;;;;;;10.40;9.43;;;35.50;90.70;;;;;;5032477;28;20720;-72
2023/09/10 06:43:22;;;;;;;9.77;8.77;;;35.30;90.60;;;;;;5032621;28;20322;-73
2023/09/10 06:45:50;;;;;;;10.65;9.65;;;35.30;90.20;;;;;;5033418;28;20184;-72
2023/09/10 06:48:16;;;;;;;10.60;9.05;;;35.60;89.60;;;;;;5029714;28;20295;-73
2023/09/10 06:50:41;;;;;;;10.02;9.13;;;35.60;89.30;;;;;;5032663;28;20303;-75
2023/09/10 06:53:07;;;;;;;10.93;9.93;;;35.60;89.10;;;;;;5033044;28;20239;-72
2023/09/10 06:55:32;;;;;;;10.43;9.40;;;35.90;88.80;;;;;;5032589;28;20207;-72
2023/09/10 06:57:58;;;;;;;11.45;9.85;;;36.00;87.60;;;;;;5032990;28;20188;-72
2023/09/10 07:00:24;;;;;;;10.07;9.27;;;36.10;86.70;;;;;;5031311;28;20250;-75
2023/09/10 07:02:49;;;;;;;9.93;9.00;;;36.20;86.00;;;;;;5029859;28;20614;-72
2023/09/10 07:05:15;;;;;;;10.02;9.13;;;36.40;84.70;;;;;;5032590;28;20231;-73
2023/09/10 07:07:40;;;;;;;10.75;9.85;;;36.60;84.50;;;;;;5032449;28;20238;-72
2023/09/10 07:10:06;;;;;;;11.38;10.27;;;36.90;83.50;;;;;;5032106;28;20180;-74
2023/09/10 07:12:32;;;;;;;12.00;8.82;;;37.00;82.60;;;;;;5029712;28;20292;-75
2023/09/10 07:14:58;;;;;;;12.10;10.35;;;37.00;81.90;;;;;;5032469;28;20290;-73
2023/09/10 07:17:23;;;;;;;10.85;9.85;;;37.00;81.80;;;;;;5032391;28;20299;-73
2023/09/10 07:19:49;;;;;;;11.05;9.20;;;37.30;81.40;;;;;;5031207;28;20215;-73
2023/09/10 07:22:14;;;;;;;10.95;9.88;;;37.40;81.00;;;;;;5031997;28;20246;-73
2023/09/10 07:24:40;;;;;;;11.05;9.82;;;37.70;79.80;;;;;;5032564;28;20234;-73
2023/09/10 07:27:06;;;;;;;10.10;9.20;;;37.70;79.30;;;;;;5032247;28;20216;-71
2023/09/10 07:29:32;;;;;;;10.50;8.77;;;38.10;78.40;;;;;;5031921;28;20223;-73
2023/09/10 07:31:57;;;;;;;9.90;8.90;;;38.20;78.10;;;;;;5032653;28;20732;-72
2023/09/10 07:34:23;;;;;;;10.95;8.48;;;37.70;77.00;;;;;;5028283;28;20218;-72
2023/09/10 07:36:49;;;;;;;8.90;8.00;;;37.50;77.80;;;;;;5032588;28;20176;-73
2023/09/10 07:39:17;;;;;;;8.60;7.80;;;37.70;77.70;;;;;;5029790;28;20187;-73
2023/09/10 07:41:43;;;;;;;9.57;8.10;;;37.90;77.10;;;;;;5031298;28;20208;-73
2023/09/10 07:44:08;;;;;;;8.93;8.05;;;38.20;76.00;;;;;;5032078;28;20204;-73
2023/09/10 07:46:34;;;;;;;8.02;7.22;;;38.20;76.50;;;;;;5026761;28;20200;-73
2023/09/10 07:49:00;;;;;;;8.15;7.35;;;38.00;76.50;;;;;;5028092;28;20258;-73
2023/09/10 07:51:25;;;;;;;8.10;7.38;;;38.00;76.70;;;;;;5028393;28;20526;-73
2023/09/10 07:53:51;;;;;;;7.65;6.85;;;37.80;76.00;;;;;;5032103;28;20218;-72
2023/09/10 07:56:17;;;;;;;8.77;6.93;;;37.90;75.00;;;;;;5028135;28;20292;-73
2023/09/10 07:58:42;;;;;;;8.15;7.45;;;38.40;74.90;;;;;;5031958;28;20686;-73
2023/09/10 08:01:08;;;;;;;7.53;6.82;;;38.60;74.70;;;;;;5031149;28;20219;-73
2023/09/10 08:03:36;;;;;;;8.73;6.95;;;38.10;74.80;;;;;;5026519;28;20709;-73
2023/09/10 08:06:02;;;;;;;7.47;6.72;;;38.00;74.20;;;;;;5029566;28;20569;-73
2023/09/10 08:08:27;;;;;;;6.97;6.10;;;37.60;74.70;;;;;;5027548;28;20258;-73
2023/09/10 08:10:53;;;;;;;6.60;6.00;;;37.60;75.20;;;;;;5030905;28;20632;-73
2023/09/10 08:13:21;;;;;;;7.03;5.57;;;37.30;74.90;;;;;;5031643;28;20291;-73
2023/09/10 08:15:46;;;;;;;5.55;5.05;;;38.10;72.60;;;;;;5031786;28;20687;-72
2023/09/10 08:18:12;;;;;;;9.20;5.40;;;38.60;71.00;;;;;;5031826;28;20210;-73
2023/09/10 08:20:39;;;;;;;8.75;5.47;;;38.50;69.90;;;;;;5029065;28;20253;-72
2023/09/10 08:23:06;;;;;;;6.40;5.82;;;38.20;70.50;;;;;;5030306;28;20789;-71
2023/09/10 08:25:32;;;;;;;6.47;5.35;;;38.20;70.80;;;;;;5027896;28;20219;-73
2023/09/10 08:27:59;;;;;;;7.68;4.78;;;38.10;70.60;;;;;;5030773;28;20190;-72
2023/09/10 08:30:25;;;;;;;8.10;5.43;;;38.10;71.10;;;;;;5031097;28;20180;-79
2023/09/10 08:32:51;;;;;;;6.40;5.68;;;38.00;71.00;;;;;;5031228;28;20295;-74
2023/09/10 08:35:21;;;;;;;5.38;4.88;;;38.30;69.90;;;;;;5030897;28;20331;-74
2023/09/10 08:37:46;;;;;;;6.00;5.40;;;38.20;69.50;;;;;;5030484;28;20211;-76
2023/09/10 08:40:12;;;;;;;6.93;4.93;;;38.40;70.00;;;;;;5030356;28;20203;-71
2023/09/10 08:42:47;;;;;;;8.73;4.97;;;38.40;69.90;;;;;;5030480;28;20211;-74
2023/09/10 08:45:13;;;;;;;5.18;4.68;;;38.40;69.60;;;;;;5030682;28;20215;-74
2023/09/10 08:47:43;;;;;;;5.40;4.80;;;38.40;67.90;;;;;;5030496;28;20698;-76
2023/09/10 08:50:14;;;;;;;6.15;4.80;;;37.80;67.90;;;;;;5030236;28;20207;-74
2023/09/10 08:52:43;;;;;;;6.15;5.35;;;37.50;69.10;;;;;;5030519;28;20211;-74
2023/09/10 08:55:11;;;;;;;5.32;4.82;;;37.70;70.70;;;;;;5030673;28;20216;-73
2023/09/10 08:57:38;;;;;;;6.85;5.38;;;37.10;70.60;;;;;;5031017;28;20203;-73
2023/09/10 09:00:10;;;;;;;9.38;5.90;;;37.20;71.20;;;;;;5030132;28;20207;-76
2023/09/10 09:02:37;;;;;;;4.97;4.47;;;36.70;71.10;;;;;;5030094;28;20219;-73
2023/09/10 09:05:04;;;;;;;5.68;5.18;;;36.60;71.50;;;;;;5030364;28;20831;-76
2023/09/10 09:07:34;;;;;;;6.93;5.65;;;36.40;72.40;;;;;;5028743;28;20208;-71
2023/09/10 09:10:02;;;;;;;6.55;4.75;;;35.70;71.90;;;;;;5030205;28;20172;-73
2023/09/10 09:12:32;;;;;;;6.53;5.20;;;35.60;73.40;;;;;;5029834;28;20204;-74
2023/09/10 09:15:00;;;;;;;5.15;4.50;;;35.70;73.40;;;;;;5026604;28;20215;-73
2023/09/10 09:17:27;;;;;;;7.10;4.10;;;35.40;71.30;;;;;;5030114;28;20212;-73
2023/09/10 09:19:53;;;;;;;5.30;4.70;;;35.20;71.00;;;;;;5028138;28;20686;-73
2023/09/10 09:22:22;;;;;;;5.85;4.30;;;35.30;72.00;;;;;;5029273;28;20235;-72
2023/09/10 09:24:48;;;;;;;6.85;5.95;;;35.40;71.00;;;;;;5030376;28;20263;-73
2023/09/10 09:27:15;;;;;;;7.85;5.70;;;35.40;71.70;;;;;;5030308;28;20219;-73
2023/09/10 09:29:41;;;;;;;5.78;5.13;;;35.40;72.20;;;;;;5029456;28;20219;-73
2023/09/10 09:32:07;;;;;;;7.43;4.95;;;35.40;72.10;;;;;;5030048;28;20211;-71
2023/09/10 09:34:33;;;;;;;7.28;4.80;;;35.30;72.70;;;;;;5029184;28;20686;-73
2023/09/10 09:37:00;;;;;;;5.15;4.65;;;35.10;72.70;;;;;;5034044;28;20184;-73
2023/09/10 09:39:26;;;;;;;7.80;4.82;;;35.00;72.80;;;;;;5034462;28;20600;-73
2023/09/10 09:41:53;;;;;;;7.95;4.53;;;34.80;73.70;;;;;;5033154;28;20216;-72
2023/09/10 09:44:19;;;;;;;5.03;4.45;;;35.00;72.60;;;;;;5033794;28;20208;-73
2023/09/10 09:46:46;;;;;;;5.25;4.28;;;34.80;70.50;;;;;;5028701;28;20208;-73
2023/09/10 09:49:12;;;;;;;6.32;4.63;;;34.80;71.80;;;;;;5033961;28;20207;-72
2023/09/10 09:51:42;;;;;;;5.68;4.63;;;34.80;72.30;;;;;;5034238;28;20185;-72
2023/09/10 09:54:08;;;;;;;6.95;5.65;;;34.40;72.90;;;;;;5030396;28;20208;-72
2023/09/10 09:56:36;;;;;;;12.02;8.27;;;34.60;74.20;;;;;;5029696;28;20211;-71
2023/09/10 09:59:02;;;;;;;7.20;5.20;;;34.80;74.60;;;;;;5033684;28;20270;-73
2023/09/10 10:01:28;;;;;;;4.88;4.38;;;34.60;73.30;;;;;;5033115;28;20216;-71
2023/09/10 10:03:57;;;;;;;6.32;4.80;;;34.60;73.20;;;;;;5033745;28;20196;-72
2023/09/10 10:06:23;;;;;;;7.72;4.95;;;34.60;73.50;;;;;;5030326;28;20169;-72
2023/09/10 10:08:50;;;;;;;5.40;4.60;;;34.60;72.90;;;;;;5033527;28;20561;-72
2023/09/10 10:11:32;;;;;;;6.93;4.20;;;34.70;73.60;;;;;;5032965;28;20623;-72
2023/09/10 10:13:59;;;;;;;4.93;4.03;;;34.70;71.50;;;;;;5033168;28;20741;-72
2023/09/10 10:16:28;;;;;;;12.30;6.82;;;34.70;71.50;;;;;;5031880;28;20290;-73
2023/09/10 10:18:54;;;;;;;6.28;4.70;;;34.50;73.00;;;;;;5033562;28;20184;-73
2023/09/10 10:21:22;;;;;;;6.47;4.97;;;34.50;72.80;;;;;;5032894;28;20176;-73
2023/09/10 10:23:47;;;;;;;5.72;4.75;;;34.50;72.20;;;;;;5032932;28;20623;-74
2023/09/10 10:26:16;;;;;;;7.75;4.75;;;34.50;72.60;;;;;;5032915;28;20219;-72
2023/09/10 10:28:44;;;;;;;7.28;4.75;;;34.40;72.70;;;;;;5032941;28;20215;-73
2023/09/10 10:31:16;;;;;;;5.32;3.85;;;34.30;72.70;;;;;;5032844;28;20204;-73
2023/09/10 10:33:51;;;;;;;5.70;4.65;;;34.10;73.00;;;;;;5033322;28;20576;-73
2023/09/10 10:36:45;;;;;;;4.53;4.05;;;34.30;73.50;;;;;;5033251;28;20722;-73
2023/09/10 10:39:14;;;;;;;4.45;4.05;;;34.40;73.30;;;;;;5030137;28;20204;-71
2023/09/10 10:41:44;;;;;;;5.20;4.50;;;34.50;73.80;;;;;;5031780;28;20216;-71
2023/09/10 10:44:19;;;;;;;6.65;4.05;;;34.40;73.10;;;;;;5032833;28;20625;-73
2023/09/10 10:46:47;;;;;;;5.57;4.03;;;34.10;72.60;;;;;;5028969;28;20211;-72
2023/09/10 10:49:13;;;;;;;6.20;4.20;;;33.90;72.20;;;;;;5032804;28;20216;-74
2023/09/10 10:51:46;;;;;;;5.55;4.63;;;33.90;73.10;;;;;;5032442;28;20187;-70
2023/09/10 10:54:13;;;;;;;5.68;4.30;;;33.80;73.80;;;;;;5033037;28;20212;-73
2023/09/10 10:56:40;;;;;;;5.80;4.15;;;33.90;73.70;;;;;;5032401;28;20212;-71
2023/09/10 10:59:06;;;;;;;5.45;4.47;;;33.90;72.50;;;;;;5032762;28;20224;-71
2023/09/10 11:01:32;;;;;;;5.65;3.88;;;33.80;74.30;;;;;;5030929;28;20224;-73
2023/09/10 11:04:16;;;;;;;5.53;4.43;;;33.90;72.60;;;;;;5031800;28;20215;-73
2023/09/10 11:07:20;;;;;;;4.80;3.60;;;33.80;71.90;;;;;;5025585;28;20210;-73
2023/09/10 11:09:47;;;;;;;6.45;3.85;;;33.90;71.80;;;;;;5029455;28;20613;-73
2023/09/10 11:12:14;;;;;;;4.40;4.00;;;33.50;72.70;;;;;;5031951;28;20214;-73
2023/09/10 11:14:58;;;;;;;4.95;3.72;;;33.60;74.10;;;;;;5031239;28;20204;-73
2023/09/10 11:17:26;;;;;;;4.93;4.05;;;33.60;73.10;;;;;;5031448;28;20260;-73
2023/09/10 11:19:51;;;;;;;7.65;4.25;;;33.60;73.30;;;;;;5030310;28;20762;-73
2023/09/10 11:22:17;;;;;;;20.10;10.68;;;33.70;74.10;;;;;;5031812;28;20282;-72
2023/09/10 11:24:42;;;;;;;14.77;7.85;;;33.80;73.50;;;;;;5031183;28;20187;-71
2023/09/10 11:27:22;;;;;;;9.70;6.43;;;33.90;72.60;;;;;;5032248;28;20255;-72
2023/09/10 11:30:18;;;;;;;6.30;4.47;;;33.80;72.80;;;;;;5031690;28;20580;-73
2023/09/10 11:32:44;;;;;;;5.55;4.30;;;33.90;72.00;;;;;;5030929;28;20260;-72
2023/09/10 11:35:19;;;;;;;6.07;4.22;;;33.80;72.00;;;;;;5032103;28;20288;-73
2023/09/10 11:37:52;;;;;;;6.07;5.03;;;33.70;71.30;;;;;;5031843;28;20289;-72
2023/09/10 11:40:19;;;;;;;6.13;4.50;;;33.60;72.50;;;;;;5042122;28;20561;-73
2023/09/10 11:42:49;;;;;;;7.93;4.45;;;33.60;73.50;;;;;;5032009;28;20211;-71
2023/09/10 11:45:15;;;;;;;4.88;4.20;;;33.60;73.80;;;;;;5028325;28;20210;-73
2023/09/10 11:47:42;;;;;;;5.15;4.15;;;33.40;73.40;;;;;;5031648;28;20209;-71
2023/09/10 11:50:09;;;;;;;5.35;4.10;;;33.30;74.30;;;;;;5031192;28;20201;-73
2023/09/10 11:52:35;;;;;;;6.18;4.38;;;33.30;74.30;;;;;;5027721;28;20207;-73
2023/09/10 11:55:01;;;;;;;6.05;3.90;;;33.20;74.50;;;;;;5027960;28;20673;-73
2023/09/10 11:57:28;;;;;;;4.80;3.53;;;33.30;74.40;;;;;;5031941;28;20173;-71
2023/09/10 11:59:54;;;;;;;7.95;5.28;;;33.30;73.40;;;;;;5030814;28;20292;-73
2023/09/10 12:02:21;;;;;;;8.45;5.30;;;33.30;74.10;;;;;;5028823;28;20306;-73
2023/09/10 12:04:47;;;;;;;6.60;4.82;;;33.30;72.80;;;;;;5031067;28;20204;-73
2023/09/10 12:07:13;;;;;;;6.22;4.55;;;33.20;72.40;;;;;;5030968;28;20231;-73
2023/09/10 12:09:38;;;;;;;5.43;3.90;;;33.20;72.80;;;;;;5031495;28;20176;-73
2023/09/10 12:12:06;;;;;;;7.00;3.70;;;33.10;73.00;;;;;;5029508;28;20343;-72
2023/09/10 12:14:32;;;;;;;6.85;4.30;;;33.10;72.30;;;;;;5027600;28;20219;-73
2023/09/10 12:16:58;;;;;;;7.28;3.75;;;33.10;73.10;;;;;;5029145;28;20218;-72
2023/09/10 12:19:25;;;;;;;5.70;4.28;;;33.10;72.60;;;;;;5029756;28;20705;-73
2023/09/10 12:21:51;;;;;;;7.00;4.30;;;33.10;73.40;;;;;;5029965;28;20603;-72
2023/09/10 12:24:16;;;;;;;4.47;4.07;;;33.10;73.30;;;;;;5031703;28;20255;-73
2023/09/10 12:26:43;;;;;;;7.45;3.85;;;33.00;73.10;;;;;;5026901;28;20283;-73
2023/09/10 12:29:11;;;;;;;4.95;3.35;;;33.10;72.70;;;;;;5030454;28;20205;-73
2023/09/10 12:31:37;;;;;;;3.67;3.38;;;33.10;73.20;;;;;;5027524;28;20286;-73
2023/09/10 12:34:02;;;;;;;5.60;4.13;;;33.10;73.30;;;;;;5026519;28;20242;-73
2023/09/10 12:36:30;;;;;;;5.53;3.83;;;33.10;73.80;;;;;;5031358;28;20172;-73
2023/09/10 12:38:55;;;;;;;3.80;3.40;;;33.10;73.90;;;;;;5030998;28;20230;-72
2023/09/10 12:41:22;;;;;;;4.28;3.70;;;32.90;73.60;;;;;;5029849;28;20281;-73